createdAt,value
2022-12-01T00:00:27.896Z,85.88
2022-12-01T00:04:39.332Z,85.82
2022-12-01T00:09:14.041Z,85.75
2022-12-01T00:13:28.203Z,85.83
2022-12-01T00:17:40.114Z,85.86
2022-12-01T00:21:51.580Z,85.68
2022-12-01T00:26:04.981Z,85.88
2022-12-01T00:30:18.240Z,86.28
2022-12-01T00:34:29.753Z,86.08
2022-12-01T00:38:41.207Z,86.01
2022-12-01T00:42:52.817Z,86.06
2022-12-01T00:47:04.435Z,86.29
2022-12-01T00:51:15.969Z,86.20
2022-12-01T00:55:27.493Z,86.08
2022-12-01T00:59:39.055Z,86.03
2022-12-01T01:03:50.539Z,86.18
2022-12-01T01:08:02.073Z,86.49
2022-12-01T01:12:13.616Z,86.42
2022-12-01T01:16:25.163Z,86.48
2022-12-01T01:20:36.895Z,86.28
2022-12-01T01:24:48.449Z,86.59
2022-12-01T01:29:02.392Z,86.69
2022-12-01T01:33:14.007Z,86.63
2022-12-01T01:37:25.627Z,86.69
2022-12-01T01:41:37.323Z,86.61
2022-12-01T01:45:48.865Z,87.01
2022-12-01T01:50:09.222Z,86.83
2022-12-01T01:54:28.485Z,86.74
2022-12-01T01:58:41.436Z,87.14
2022-12-01T02:02:53.773Z,86.97
2022-12-01T02:07:05.954Z,86.97
2022-12-01T02:11:33.932Z,87.19
2022-12-01T02:15:51.516Z,86.95
2022-12-01T02:20:12.344Z,87.07
2022-12-01T02:24:48.779Z,87.19
2022-12-01T02:29:38.380Z,87.42
2022-12-01T02:33:58.623Z,87.06
2022-12-01T02:38:30.208Z,87.35
2022-12-01T02:43:06.225Z,87.70
2022-12-01T02:47:19.630Z,87.52
2022-12-01T02:51:34.434Z,87.50
2022-12-01T02:55:48.080Z,87.25
2022-12-01T03:00:00.671Z,87.77
2022-12-01T03:04:46.277Z,87.18
2022-12-01T03:09:10.164Z,87.38
2022-12-01T03:13:33.593Z,87.61
2022-12-01T03:17:58.701Z,87.41
2022-12-01T03:22:22.932Z,87.67
2022-12-01T03:26:37.408Z,87.33
2022-12-01T03:30:53.758Z,87.59
2022-12-01T03:35:14.496Z,87.43
2022-12-01T03:39:33.201Z,87.70
2022-12-01T03:43:51.868Z,87.40
2022-12-01T03:48:03.590Z,87.67
2022-12-01T03:52:18.309Z,87.34
2022-12-01T03:56:37.120Z,87.00
2022-12-01T04:00:53.210Z,87.25
2022-12-01T04:05:09.378Z,87.11
2022-12-01T04:09:21.018Z,87.33
2022-12-01T04:13:33.144Z,87.08
2022-12-01T04:17:45.061Z,87.16
2022-12-01T04:21:56.703Z,87.25
2022-12-01T04:26:14.270Z,87.01
2022-12-01T04:30:27.246Z,87.35
2022-12-01T04:34:39.180Z,87.08
2022-12-01T04:38:50.841Z,86.85
2022-12-01T04:43:02.377Z,87.16
2022-12-01T04:47:13.894Z,86.60
2022-12-01T04:51:25.508Z,86.75
2022-12-01T04:55:39.175Z,86.63
2022-12-01T04:59:51.001Z,86.56
2022-12-01T05:04:03.132Z,86.51
2022-12-01T05:08:14.713Z,86.57
2022-12-01T05:12:26.572Z,86.73
2022-12-01T05:16:38.178Z,86.59
2022-12-01T05:20:59.046Z,86.92
2022-12-01T05:25:10.770Z,87.21
2022-12-01T05:29:22.321Z,86.72
2022-12-01T05:33:33.868Z,87.14
2022-12-01T05:37:45.382Z,86.95
2022-12-01T05:41:57.150Z,87.16
2022-12-01T05:46:08.812Z,87.23
2022-12-01T05:50:20.548Z,87.22
2022-12-01T05:54:32.843Z,87.49
2022-12-01T05:58:44.415Z,86.94
2022-12-01T06:02:55.979Z,87.20
2022-12-01T06:07:07.555Z,87.50
2022-12-01T06:11:19.087Z,87.18
2022-12-01T06:15:30.748Z,87.43
2022-12-01T06:19:43.479Z,87.45
2022-12-01T06:23:55.101Z,87.22
2022-12-01T06:28:06.632Z,87.77
2022-12-01T06:32:18.252Z,87.37
2022-12-01T06:36:29.767Z,87.51
2022-12-01T06:40:43.281Z,87.56
2022-12-01T06:44:54.820Z,87.46
2022-12-01T06:49:06.633Z,87.76
2022-12-01T06:53:18.214Z,87.69
2022-12-01T06:57:30.313Z,87.41
2022-12-01T07:01:42.047Z,87.67
2022-12-01T07:05:58.679Z,87.89
2022-12-01T07:10:11.187Z,87.45
2022-12-01T07:14:26.600Z,87.68
2022-12-01T07:18:38.847Z,87.86
2022-12-01T07:22:50.427Z,87.84
2022-12-01T07:27:02.023Z,87.64
2022-12-01T07:31:18.796Z,87.90
2022-12-01T07:35:30.411Z,88.04
2022-12-01T07:39:42.037Z,87.86
2022-12-01T07:43:55.372Z,88.21
2022-12-01T07:48:07.073Z,88.00
2022-12-01T07:52:18.763Z,88.21
2022-12-01T07:56:31.296Z,88.19
2022-12-01T08:00:43.083Z,88.17
2022-12-01T08:04:54.685Z,88.40
2022-12-01T08:09:06.399Z,88.05
2022-12-01T08:13:17.980Z,88.06
2022-12-01T08:17:29.627Z,87.62
2022-12-01T08:21:41.252Z,88.04
2022-12-01T08:25:52.868Z,87.42
2022-12-01T08:30:05.419Z,87.24
2022-12-01T08:34:17.079Z,87.29
2022-12-01T08:38:28.578Z,87.39
2022-12-01T08:42:40.219Z,87.44
2022-12-01T08:46:52.030Z,87.21
2022-12-01T08:51:18.345Z,87.09
2022-12-01T08:55:29.926Z,86.95
2022-12-01T08:59:41.539Z,86.86
2022-12-01T09:04:05.649Z,86.98
2022-12-01T09:08:33.104Z,86.24
2022-12-01T09:12:44.640Z,86.24
2022-12-01T09:16:56.225Z,86.36
2022-12-01T09:21:17.341Z,86.41
2022-12-01T09:25:30.905Z,86.42
2022-12-01T09:29:42.446Z,86.27
2022-12-01T09:33:59.293Z,85.97
2022-12-01T09:38:10.832Z,85.80
2022-12-01T09:42:30.918Z,85.24
2022-12-01T09:46:49.141Z,84.98
2022-12-01T09:51:01.094Z,85.03
2022-12-01T09:55:15.125Z,84.16
2022-12-01T09:59:32.679Z,84.44
2022-12-01T10:03:49.965Z,83.94
2022-12-01T10:08:11.884Z,83.69
2022-12-01T10:12:27.808Z,83.09
2022-12-01T10:16:52.946Z,82.70
2022-12-01T10:21:11.909Z,82.00
2022-12-01T10:25:26.612Z,81.30
2022-12-01T10:30:09.287Z,81.36
2022-12-01T10:34:24.983Z,81.47
2022-12-01T10:38:38.247Z,81.61
2022-12-01T10:42:50.970Z,80.44
2022-12-01T10:47:03.158Z,80.82
2022-12-01T10:51:17.563Z,80.47
2022-12-01T10:55:34.414Z,80.80
2022-12-01T11:00:05.826Z,79.96
2022-12-01T11:04:44.923Z,79.31
2022-12-01T11:09:02.684Z,79.10
2022-12-01T11:13:19.200Z,78.61
2022-12-01T11:17:33.291Z,77.95
2022-12-01T11:21:50.515Z,76.85
2022-12-01T11:26:23.782Z,76.16
2022-12-01T11:30:35.374Z,73.95
2022-12-01T11:35:19.321Z,72.94
2022-12-01T11:39:40.203Z,72.54
2022-12-01T11:44:01.145Z,72.48
2022-12-01T11:48:15.410Z,72.35
2022-12-01T11:52:30.138Z,72.23
2022-12-01T11:56:44.084Z,72.01
2022-12-01T12:00:57.939Z,71.93
2022-12-01T12:05:27.877Z,72.84
2022-12-01T12:10:02.932Z,72.72
2022-12-01T12:14:32.060Z,72.55
2022-12-01T12:18:52.919Z,72.86
2022-12-01T12:23:31.900Z,72.81
2022-12-01T12:27:54.882Z,72.37
2022-12-01T12:32:31.231Z,72.11
2022-12-01T12:37:01.776Z,71.65
2022-12-01T12:41:21.532Z,71.39
2022-12-01T12:46:18.143Z,71.22
2022-12-01T12:51:02.038Z,71.38
2022-12-01T12:55:25.202Z,71.36
2022-12-01T12:59:54.183Z,71.74
2022-12-01T13:04:38.177Z,70.46
2022-12-01T13:08:58.259Z,70.47
2022-12-01T13:13:24.814Z,70.59
2022-12-01T13:17:41.737Z,70.85
2022-12-01T13:21:54.150Z,71.64
2022-12-01T13:26:09.672Z,71.70
2022-12-01T13:30:24.777Z,72.22
2022-12-01T13:34:41.940Z,72.48
2022-12-01T13:39:05.841Z,72.50
2022-12-01T13:43:20.842Z,73.05
2022-12-01T13:47:47.699Z,72.91
2022-12-01T13:52:18.188Z,73.33
2022-12-01T13:57:00.785Z,73.42
2022-12-01T14:01:22.085Z,73.62
2022-12-01T14:05:40.613Z,73.60
2022-12-01T14:09:56.698Z,73.22
2022-12-01T14:14:25.776Z,73.27
2022-12-01T14:18:44.170Z,73.27
2022-12-01T14:23:15.533Z,73.41
2022-12-01T14:27:39.913Z,73.65
2022-12-01T14:31:51.441Z,74.06
2022-12-01T14:36:06.839Z,74.15
2022-12-01T14:40:23.667Z,74.42
2022-12-01T14:44:49.303Z,74.69
2022-12-01T14:49:03.727Z,74.67
2022-12-01T14:53:23.638Z,75.10
2022-12-01T14:57:44.134Z,74.99
2022-12-01T15:01:58.489Z,75.24
2022-12-01T15:06:15.896Z,75.57
2022-12-01T15:10:37.208Z,75.99
2022-12-01T15:14:49.762Z,76.13
2022-12-01T15:19:01.622Z,76.36
2022-12-01T15:23:16.157Z,76.55
2022-12-01T15:27:31.078Z,76.91
2022-12-01T15:31:46.697Z,76.93
2022-12-01T15:36:00.458Z,77.26
2022-12-01T15:45:22.579Z,77.83
2022-12-01T15:49:39.195Z,77.61
2022-12-01T15:53:58.193Z,78.14
2022-12-01T15:58:19.884Z,77.97
2022-12-01T16:02:33.562Z,78.46
2022-12-01T16:06:55.489Z,78.48
2022-12-01T16:11:18.187Z,78.60
2022-12-01T16:15:29.838Z,78.86
2022-12-01T16:19:43.543Z,78.74
2022-12-01T16:24:22.347Z,79.08
2022-12-01T16:28:37.929Z,79.50
2022-12-01T16:32:49.803Z,79.33
2022-12-01T16:37:01.401Z,79.37
2022-12-01T16:41:18.387Z,79.67
2022-12-01T16:45:30.118Z,79.94
2022-12-01T16:49:41.904Z,79.51
2022-12-01T16:53:55.112Z,79.81
2022-12-01T16:58:06.739Z,80.16
2022-12-01T17:02:18.466Z,79.99
2022-12-01T17:06:30.188Z,80.07
2022-12-01T17:10:43.748Z,80.24
2022-12-01T17:14:55.377Z,80.45
2022-12-01T17:19:06.996Z,80.15
2022-12-01T17:23:18.567Z,80.31
2022-12-01T17:27:31.532Z,80.51
2022-12-01T17:31:43.290Z,80.72
2022-12-01T17:35:55.014Z,80.57
2022-12-01T17:40:08.707Z,80.45
2022-12-01T17:44:21.596Z,80.79
2022-12-01T17:48:41.951Z,81.05
2022-12-01T17:52:53.589Z,81.29
2022-12-01T17:57:07.327Z,81.25
2022-12-01T18:01:24.116Z,81.83
2022-12-01T18:05:38.465Z,82.03
2022-12-01T18:09:50.034Z,81.82
2022-12-01T18:14:01.549Z,81.58
2022-12-01T18:18:13.247Z,81.71
2022-12-01T18:22:24.723Z,81.34
2022-12-01T18:26:38.164Z,81.63
2022-12-01T18:30:49.728Z,81.64
2022-12-01T18:35:01.212Z,81.47
2022-12-01T18:39:12.942Z,81.76
2022-12-01T18:43:25.597Z,81.36
2022-12-01T18:47:37.071Z,81.73
2022-12-01T18:51:48.551Z,81.65
2022-12-01T18:56:10.294Z,81.59
2022-12-01T19:00:23.309Z,81.74
2022-12-01T19:04:36.021Z,81.78
2022-12-01T19:08:47.877Z,81.88
2022-12-01T19:12:59.369Z,81.73
2022-12-01T19:17:11.202Z,81.84
2022-12-01T19:21:23.045Z,81.88
2022-12-01T19:25:36.482Z,81.92
2022-12-01T19:29:49.807Z,81.90
2022-12-01T19:34:01.681Z,81.72
2022-12-01T19:38:13.302Z,81.81
2022-12-01T19:42:25.075Z,81.83
2022-12-01T19:46:36.692Z,81.82
2022-12-01T19:50:48.246Z,81.63
2022-12-01T19:54:59.891Z,81.73
2022-12-01T19:59:13.397Z,81.54
2022-12-01T20:03:24.896Z,81.92
2022-12-01T20:07:36.478Z,81.63
2022-12-01T20:11:47.999Z,81.73
2022-12-01T20:16:08.802Z,81.69
2022-12-01T20:20:20.419Z,81.69
2022-12-01T20:24:31.986Z,82.14
2022-12-01T20:28:45.426Z,81.80
2022-12-01T20:32:56.956Z,81.83
2022-12-01T20:37:08.591Z,81.97
2022-12-01T20:41:20.631Z,81.84
2022-12-01T20:45:32.172Z,81.63
2022-12-01T20:49:44.213Z,81.67
2022-12-01T20:54:26.373Z,81.82
2022-12-01T20:58:27.222Z,81.99
2022-12-01T21:02:39.451Z,81.66
2022-12-01T21:06:51.192Z,81.89
2022-12-01T21:11:19.158Z,82.22
2022-12-01T21:15:36.573Z,81.67
2022-12-01T21:20:21.995Z,82.06
2022-12-01T21:24:37.999Z,82.17
2022-12-01T21:28:58.296Z,82.42
2022-12-01T21:33:21.924Z,82.18
2022-12-01T21:37:33.860Z,82.49
2022-12-01T21:41:45.401Z,82.05
2022-12-01T21:46:06.596Z,82.34
2022-12-01T21:50:23.308Z,82.28
2022-12-01T21:54:34.945Z,82.43
2022-12-01T21:58:46.706Z,82.47
2022-12-01T22:03:25.551Z,82.46
2022-12-01T22:07:37.358Z,82.16
2022-12-01T22:11:57.206Z,82.22
2022-12-01T22:16:28.571Z,82.42
2022-12-01T22:20:40.148Z,82.20
2022-12-01T22:24:54.171Z,82.41
2022-12-01T22:29:45.453Z,82.59
2022-12-01T22:34:03.548Z,82.46
2022-12-01T22:38:35.579Z,82.38
2022-12-01T22:42:47.108Z,82.20
2022-12-01T22:47:02.105Z,82.28
2022-12-01T22:51:13.969Z,82.54
2022-12-01T22:55:25.557Z,82.21
2022-12-01T22:59:43.086Z,81.99
2022-12-01T23:04:19.221Z,82.14
2022-12-01T23:08:30.756Z,82.01
2022-12-01T23:12:43.904Z,82.27
2022-12-01T23:17:07.730Z,82.33
2022-12-01T23:21:19.348Z,82.59
2022-12-01T23:25:31.549Z,82.54
2022-12-01T23:29:43.187Z,82.37
2022-12-01T23:33:54.863Z,82.65
2022-12-01T23:38:13.260Z,82.54
2022-12-01T23:42:24.790Z,82.89
2022-12-01T23:46:36.833Z,82.79
2022-12-01T23:50:53.600Z,83.09
2022-12-01T23:55:16.795Z,83.03
2022-12-01T23:59:30.029Z,83.18
